Time;durP1;ratioP1;P1;durP2;ratioP2;P2;SDS_P1;SDS_P2;PMS_P1;PMS_P2;Temp;Humidity;BMP_temperature;BMP_pressure;BME280_temperature;BME280_humidity;BME280_pressure;Samples;Min_cycle;Max_cycle;Signal;HPM_P1;HPM_P2
2023/06/18 00:00:33;;;;;;;13.90;10.90;;;;;;;20.89;47.05;93283.22;5002563;28;20049;-89
2023/06/18 00:02:58;;;;;;;15.50;11.10;;;;;;;20.89;47.29;93283.22;4996740;28;20048;-88
2023/06/18 00:05:23;;;;;;;17.13;12.68;;;;;;;20.90;47.42;93292.19;4996262;28;20045;-90
2023/06/18 00:07:49;;;;;;;17.52;12.15;;;;;;;20.91;47.18;93286.16;4991929;28;20433;-89
2023/06/18 00:10:14;;;;;;;15.93;11.18;;;;;;;20.88;47.31;93287.97;5027257;28;20381;-90
2023/06/18 00:12:40;;;;;;;16.55;11.40;;;;;;;20.87;47.06;93286.50;4996260;28;20041;-90
2023/06/18 00:15:06;;;;;;;14.85;10.82;;;;;;;20.88;47.09;93281.72;4996871;28;20053;-89
2023/06/18 00:17:32;;;;;;;16.95;11.13;;;;;;;20.89;47.07;93280.47;4980927;28;20224;-89
2023/06/18 00:19:58;;;;;;;14.52;10.73;;;;;;;20.88;47.10;93278.97;5003079;28;20087;-89
2023/06/18 00:22:23;;;;;;;14.63;10.88;;;;;;;20.87;47.03;93286.50;4994015;28;20049;-88
2023/06/18 00:24:48;;;;;;;14.98;10.13;;;;;;;20.87;47.14;93281.00;4980082;28;20060;-89
2023/06/18 00:27:14;;;;;;;13.32;10.73;;;;;;;20.90;46.92;93276.44;5010648;28;20117;-89
2023/06/18 00:29:40;;;;;;;13.15;10.75;;;;;;;20.86;47.15;93273.28;4975151;28;20041;-89
2023/06/18 00:32:06;;;;;;;18.00;11.68;;;;;;;20.86;47.13;93276.03;4974796;28;20038;-89
2023/06/18 00:34:32;;;;;;;15.60;11.18;;;;;;;20.87;47.15;93277.50;4993363;28;20053;-91
2023/06/18 00:37:00;;;;;;;14.55;10.73;;;;;;;20.84;47.09;93273.81;4986282;28;20046;-89
2023/06/18 00:39:26;;;;;;;15.35;11.75;;;;;;;20.84;47.05;93273.81;4981732;28;20042;-90
2023/06/18 00:41:53;;;;;;;14.18;10.77;;;;;;;20.84;47.05;93273.81;4990584;28;20413;-90
2023/06/18 00:44:21;;;;;;;13.32;9.93;;;;;;;20.84;47.03;93276.56;5004676;28;20507;-90
2023/06/18 00:46:49;;;;;;;15.18;10.90;;;;;;;20.83;47.05;93272.31;4991716;28;20456;-91
2023/06/18 00:49:15;;;;;;;13.60;10.65;;;;;;;20.83;47.18;93271.59;4983117;28;20042;-92
2023/06/18 00:51:44;;;;;;;13.27;9.90;;;;;;;20.87;47.03;93270.00;4985219;28;20117;-91
2023/06/18 00:54:13;;;;;;;14.45;10.38;;;;;;;20.85;47.16;93266.31;5011559;28;20042;-88
2023/06/18 00:56:39;;;;;;;14.30;10.35;;;;;;;20.83;47.22;93266.09;4996157;28;20042;-89
2023/06/18 00:59:05;;;;;;;14.13;9.98;;;;;;;20.83;47.09;93268.84;4992173;28;20038;-88
2023/06/18 01:01:36;;;;;;;15.75;11.10;;;;;;;20.83;47.18;93268.84;4976760;28;20033;-91
2023/06/18 01:04:01;;;;;;;13.50;10.57;;;;;;;20.84;47.10;93264.81;5004410;28;20125;-89
2023/06/18 01:06:26;;;;;;;13.70;10.00;;;;;;;20.83;47.22;93266.81;4987583;28;20041;-89
2023/06/18 01:08:53;;;;;;;14.25;10.48;;;;;;;20.82;47.10;93267.34;4973025;28;20054;-90
2023/06/18 01:11:19;;;;;;;13.77;10.38;;;;;;;20.84;46.97;93267.56;4956678;28;20057;-89
2023/06/18 01:13:44;;;;;;;12.18;9.05;;;;;;;20.83;47.18;93269.56;4957737;28;20042;-89
2023/06/18 01:16:10;;;;;;;13.80;10.18;;;;;;;20.82;47.12;93265.34;4974611;28;20045;-89
2023/06/18 01:18:45;;;;;;;13.15;10.60;;;;;;;20.82;47.22;93264.59;4979684;28;20050;-89
2023/06/18 01:21:11;;;;;;;14.20;10.00;;;;;;;20.81;47.26;93263.13;4990573;28;20045;-91
2023/06/18 01:23:57;;;;;;;14.88;10.52;;;;;;;20.81;47.25;93266.63;4972528;28;20044;-90
2023/06/18 01:26:22;;;;;;;12.35;9.57;;;;;;;20.81;47.13;93272.13;5011422;28;20688;-89
2023/06/18 01:28:50;;;;;;;14.80;10.20;;;;;;;20.81;47.19;93268.63;5027036;28;20053;-89
2023/06/18 01:31:20;;;;;;;13.30;10.15;;;;;;;20.82;47.10;93272.84;4993927;28;20045;-89
2023/06/18 01:33:51;;;;;;;15.45;10.65;;;;;;;20.79;47.24;93271.91;5011912;28;20504;-89
2023/06/18 01:36:24;;;;;;;11.73;9.50;;;;;;;20.80;47.39;93264.41;5011866;28;20053;-88
2023/06/18 01:38:49;;;;;;;13.73;9.27;;;;;;;20.81;47.22;93265.88;4996706;28;20500;-88
2023/06/18 01:41:18;;;;;;;12.10;9.80;;;;;;;20.80;47.11;93261.66;4994278;28;20048;-90
2023/06/18 01:44:00;;;;;;;13.75;10.80;;;;;;;20.81;46.92;93274.13;4980988;28;20137;-88
2023/06/18 01:46:26;;;;;;;12.77;9.90;;;;;;;20.80;47.07;93261.66;4991200;28;20045;-89
2023/06/18 01:48:56;;;;;;;14.75;10.05;;;;;;;20.79;47.06;93266.41;5016177;28;20042;-89
2023/06/18 01:51:21;;;;;;;13.10;9.43;;;;;;;20.80;47.11;93258.91;4955870;28;20042;-89
2023/06/18 01:53:46;;;;;;;12.55;9.63;;;;;;;20.81;46.86;93268.63;4971874;28;20038;-89
2023/06/18 01:56:13;;;;;;;13.57;10.15;;;;;;;20.79;47.06;93260.16;4987827;28;20042;-90
2023/06/18 01:58:41;;;;;;;11.57;9.60;;;;;;;20.78;47.07;93266.97;5001142;28;20042;-91
2023/06/18 02:01:06;;;;;;;13.13;9.45;;;;;;;20.80;46.98;93269.88;4992726;28;20046;-88
2023/06/18 02:03:32;;;;;;;13.23;9.20;;;;;;;20.78;47.02;93264.94;5026785;28;20044;-89
2023/06/18 02:05:57;;;;;;;12.13;9.15;;;;;;;20.77;46.93;93266.22;4994600;28;20041;-89
2023/06/18 02:08:23;;;;;;;11.52;9.13;;;;;;;20.77;47.22;93277.22;5009986;28;20558;-89
2023/06/18 02:10:48;;;;;;;14.35;9.52;;;;;;;20.77;47.03;93271.72;4972052;28;20408;-90
2023/06/18 02:13:13;;;;;;;9.52;8.35;;;;;;;20.76;46.85;93272.97;4981749;28;20405;-89
2023/06/18 02:15:40;;;;;;;11.60;9.00;;;;;;;20.76;46.87;93278.47;5001253;28;20046;-90
2023/06/18 02:18:06;;;;;;;9.93;8.43;;;;;;;20.77;46.89;93271.72;4974392;28;20049;-88
2023/06/18 02:20:31;;;;;;;12.43;9.60;;;;;;;20.78;46.86;93275.19;4987448;28;20042;-89
2023/06/18 02:22:58;;;;;;;14.05;9.10;;;;;;;20.76;46.85;93272.97;4979511;28;20050;-91
2023/06/18 02:25:29;;;;;;;13.63;9.85;;;;;;;20.76;46.85;93275.72;5004885;28;20064;-89
2023/06/18 02:27:57;;;;;;;12.95;9.85;;;;;;;20.76;46.91;93272.25;5020296;28;20052;-91
2023/06/18 02:30:25;;;;;;;13.07;9.50;;;;;;;20.74;47.14;93278.25;4995552;28;20501;-88
2023/06/18 02:32:52;;;;;;;14.90;10.13;;;;;;;20.74;46.84;93275.53;4973847;28;20042;-90
2023/06/18 02:35:18;;;;;;;10.60;8.27;;;;;;;20.74;46.95;93275.53;4989987;28;20132;-90
2023/06/18 02:37:43;;;;;;;14.50;9.50;;;;;;;20.76;46.83;93283.97;4987621;28;20074;-89
2023/06/18 02:40:11;;;;;;;11.02;9.00;;;;;;;20.74;46.88;93278.25;4995469;28;20084;-88
2023/06/18 02:42:36;;;;;;;11.13;9.27;;;;;;;20.74;46.84;93275.53;5009686;28;20515;-89
2023/06/18 02:45:02;;;;;;;12.75;9.02;;;;;;;20.76;46.94;93275.00;5009942;28;20045;-90
2023/06/18 02:47:28;;;;;;;11.43;9.05;;;;;;;20.75;47.05;93281.75;4993369;28;20045;-88
2023/06/18 02:49:53;;;;;;;12.52;8.88;;;;;;;20.74;46.98;93283.75;5023485;28;20501;-91
2023/06/18 02:52:19;;;;;;;13.07;9.35;;;;;;;20.74;46.96;93278.25;5008736;28;20540;-90
2023/06/18 02:54:44;;;;;;;12.65;9.25;;;;;;;20.74;46.98;93272.78;5006912;28;20033;-90
2023/06/18 02:57:10;;;;;;;11.13;8.40;;;;;;;20.73;46.95;93271.28;4998945;28;20409;-88
2023/06/18 02:59:35;;;;;;;10.90;8.95;;;;;;;20.73;46.93;93281.53;5021611;28;20052;-89
2023/06/18 03:02:04;;;;;;;10.98;8.38;;;;;;;20.74;46.88;93272.78;5005613;28;20321;-88
2023/06/18 03:04:30;;;;;;;12.27;9.07;;;;;;;20.72;47.15;93282.81;4974246;28;20061;-91
2023/06/18 03:06:57;;;;;;;11.88;8.45;;;;;;;20.73;47.12;93273.31;4972449;28;20488;-89
2023/06/18 03:09:23;;;;;;;11.52;8.50;;;;;;;20.73;46.82;93287.03;4957387;28;20107;-90
2023/06/18 03:11:48;;;;;;;11.43;9.18;;;;;;;20.72;46.91;93282.81;4969308;28;20034;-89
2023/06/18 03:14:14;;;;;;;14.00;8.63;;;;;;;20.71;46.90;93284.81;5009181;28;20038;-90
2023/06/18 03:16:39;;;;;;;13.13;8.40;;;;;;;20.73;46.72;93287.78;4996494;28;20037;-90
2023/06/18 03:19:04;;;;;;;11.65;9.00;;;;;;;20.74;46.85;93292.00;4983587;28;20049;-90
2023/06/18 03:21:30;;;;;;;10.50;8.30;;;;;;;20.72;46.83;93299.28;5004140;28;20706;-89
2023/06/18 03:23:55;;;;;;;11.75;8.77;;;;;;;20.74;46.52;93292.00;5021607;28;20464;-90
2023/06/18 03:26:21;;;;;;;11.32;8.43;;;;;;;20.73;46.70;93289.78;4992816;28;20044;-90
2023/06/18 03:28:47;;;;;;;10.43;8.35;;;;;;;20.72;46.64;93291.03;4978308;28;20564;-90
2023/06/18 03:31:13;;;;;;;10.52;8.27;;;;;;;20.75;46.71;93295.50;4993243;28;20045;-90
2023/06/18 03:33:38;;;;;;;11.15;7.97;;;;;;;20.75;46.60;93298.22;5003146;28;20552;-89
2023/06/18 03:36:05;;;;;;;9.77;8.02;;;;;;;20.73;46.79;93298.03;4990774;28;20042;-89
2023/06/18 03:38:31;;;;;;;11.20;8.25;;;;;;;20.73;46.51;93290.53;4986810;28;20038;-90
2023/06/18 03:40:56;;;;;;;11.70;8.57;;;;;;;20.73;46.78;93292.53;4998083;28;20117;-88
2023/06/18 03:43:22;;;;;;;11.13;8.48;;;;;;;20.75;46.46;93295.50;4991334;28;20080;-89
2023/06/18 03:45:47;;;;;;;10.70;8.60;;;;;;;20.72;46.81;93282.81;4992098;28;20035;-92
2023/06/18 03:48:12;;;;;;;9.20;8.13;;;;;;;20.74;46.48;93283.75;4962738;28;20042;-90
2023/06/18 03:50:38;;;;;;;9.95;8.15;;;;;;;20.75;46.77;93287.25;4989524;28;20058;-88
2023/06/18 03:53:03;;;;;;;10.18;7.47;;;;;;;20.75;46.45;93288.00;5005561;28;20051;-88
2023/06/18 03:55:29;;;;;;;11.43;8.15;;;;;;;20.74;46.42;93281.00;4972794;28;20053;-89
2023/06/18 03:57:54;;;;;;;9.73;8.23;;;;;;;20.74;46.32;93289.25;5022345;28;20108;-90
2023/06/18 04:00:20;;;;;;;11.40;8.38;;;;;;;20.75;46.25;93287.25;5017514;28;20523;-89
2023/06/18 04:02:45;;;;;;;11.68;7.85;;;;;;;20.76;46.55;93283.97;4979104;28;20044;-91
2023/06/18 04:05:12;;;;;;;11.30;8.43;;;;;;;20.76;46.43;93285.97;4993311;28;20092;-89
2023/06/18 04:07:37;;;;;;;9.68;8.18;;;;;;;20.77;46.46;93295.69;4973398;28;20053;-90
2023/06/18 04:10:03;;;;;;;11.27;9.50;;;;;;;20.77;46.37;93295.69;4983496;28;20073;-89
2023/06/18 04:12:28;;;;;;;9.40;7.47;;;;;;;20.77;46.55;93287.47;4975501;28;20046;-88
2023/06/18 04:14:54;;;;;;;9.02;7.85;;;;;;;20.80;46.38;93286.38;5009119;28;20412;-89
2023/06/18 04:17:19;;;;;;;10.05;8.07;;;;;;;20.80;46.13;93291.88;5008363;28;20052;-88
2023/06/18 04:19:45;;;;;;;10.73;8.48;;;;;;;20.80;46.27;93287.13;4994235;28;20045;-90
2023/06/18 04:22:10;;;;;;;10.57;7.80;;;;;;;20.81;46.24;93285.84;5012149;28;20046;-90
2023/06/18 04:24:35;;;;;;;11.23;8.88;;;;;;;20.83;46.08;93290.81;4999958;28;20045;-91
2023/06/18 04:27:01;;;;;;;9.52;7.97;;;;;;;20.83;45.98;93288.06;5008942;28;20045;-89
2023/06/18 04:29:26;;;;;;;9.60;7.72;;;;;;;20.83;46.20;93280.56;4977782;28;20271;-89
2023/06/18 04:31:52;;;;;;;9.50;7.38;;;;;;;20.84;46.15;93282.03;4984425;28;20045;-89
2023/06/18 04:34:17;;;;;;;9.52;7.53;;;;;;;20.85;46.09;93288.28;4983682;28;20526;-90
2023/06/18 04:36:43;;;;;;;9.57;7.70;;;;;;;20.85;46.18;93289.03;4992788;28;20050;-90
2023/06/18 04:39:09;;;;;;;10.25;7.55;;;;;;;20.85;46.14;93285.53;4975755;28;20570;-90
2023/06/18 04:41:34;;;;;;;10.95;7.85;;;;;;;20.87;46.07;93294.00;5009146;28;20469;-89
2023/06/18 04:43:59;;;;;;;10.20;7.82;;;;;;;20.86;46.11;93290.50;4986171;28;20049;-89
2023/06/18 04:46:25;;;;;;;9.63;7.63;;;;;;;20.87;46.13;93291.97;4975749;28;20045;-88
2023/06/18 04:48:51;;;;;;;8.73;6.95;;;;;;;20.89;46.25;93291.44;4976038;28;20050;-88
2023/06/18 04:51:16;;;;;;;8.98;6.95;;;;;;;20.91;46.06;93282.69;4993436;28;20413;-89
2023/06/18 04:53:41;;;;;;;10.35;6.78;;;;;;;20.92;46.17;93281.41;4982734;28;20037;-90
2023/06/18 04:56:08;;;;;;;8.95;6.82;;;;;;;20.94;46.16;93282.38;4985210;28;20046;-89
2023/06/18 04:58:36;;;;;;;10.13;6.93;;;;;;;20.96;46.02;93284.59;5008796;28;20436;-91
2023/06/18 05:01:02;;;;;;;8.82;6.82;;;;;;;20.99;46.14;93294.53;5008776;28;20038;-90
2023/06/18 05:03:28;;;;;;;8.27;7.00;;;;;;;20.98;46.00;93291.03;5000850;28;20041;-90
2023/06/18 05:05:53;;;;;;;9.65;6.68;;;;;;;20.98;46.03;93284.78;4991607;28;20445;-91
2023/06/18 05:08:18;;;;;;;8.55;7.15;;;;;;;20.99;45.99;93281.53;4985439;28;20053;-89
2023/06/18 05:10:44;;;;;;;8.68;6.63;;;;;;;21.00;46.13;93280.22;4977915;28;20038;-89
2023/06/18 05:13:09;;;;;;;9.82;7.43;;;;;;;21.02;46.00;93293.44;4993179;28;20041;-90
2023/06/18 05:15:35;;;;;;;8.57;6.40;;;;;;;21.02;46.30;93285.94;5011588;28;20049;-89
2023/06/18 05:18:00;;;;;;;10.85;6.22;;;;;;;21.02;46.11;93288.69;4992403;28;20083;-90
2023/06/18 05:20:26;;;;;;;8.95;6.57;;;;;;;21.02;46.30;93294.19;5001092;28;20045;-89
2023/06/18 05:22:51;;;;;;;7.45;6.22;;;;;;;21.04;46.10;93291.63;4979139;28;20617;-90
2023/06/18 05:25:17;;;;;;;7.80;6.15;;;;;;;21.04;46.04;93286.13;4955935;28;20386;-88
2023/06/18 05:27:43;;;;;;;8.65;7.05;;;;;;;21.06;45.96;93288.38;4972233;28;20047;-88
2023/06/18 05:30:08;;;;;;;7.75;6.30;;;;;;;21.07;46.10;93292.59;5020574;28;20084;-89
2023/06/18 05:32:34;;;;;;;7.95;6.72;;;;;;;21.09;46.01;93292.81;4961031;28;20073;-89
2023/06/18 05:34:59;;;;;;;8.13;6.38;;;;;;;21.10;46.07;93294.28;4997160;28;20482;-89
2023/06/18 05:37:25;;;;;;;8.60;5.93;;;;;;;21.10;45.92;93295.03;5024777;28;20304;-88
2023/06/18 05:39:51;;;;;;;7.82;6.35;;;;;;;21.11;45.81;93298.50;4995049;28;20049;-90
2023/06/18 05:42:16;;;;;;;9.10;6.53;;;;;;;21.12;46.12;93297.97;5010461;28;20046;-90
2023/06/18 05:44:42;;;;;;;8.77;6.50;;;;;;;21.13;45.91;93304.97;4984011;28;20572;-90
2023/06/18 05:47:07;;;;;;;8.73;5.75;;;;;;;21.13;45.75;93304.97;5000886;28;20052;-90
2023/06/18 05:49:33;;;;;;;8.05;6.15;;;;;;;21.15;45.97;93302.41;4995518;28;20045;-88
2023/06/18 05:51:58;;;;;;;7.40;6.15;;;;;;;21.16;45.78;93303.91;4991721;28;20042;-90
2023/06/18 05:54:25;;;;;;;7.80;6.20;;;;;;;21.18;45.58;93304.09;4986679;28;20042;-89
2023/06/18 05:56:53;;;;;;;8.32;6.43;;;;;;;21.18;45.88;93300.63;4994700;28;20492;-90
2023/06/18 05:59:18;;;;;;;7.15;5.93;;;;;;;21.18;45.91;93312.34;5009453;28;20045;-91
2023/06/18 06:01:44;;;;;;;8.35;5.80;;;;;;;21.21;45.89;93316.09;4984386;28;20031;-91
2023/06/18 06:04:09;;;;;;;6.30;5.35;;;;;;;21.22;45.84;93316.81;4966084;28;20563;-90
2023/06/18 06:06:36;;;;;;;7.60;6.55;;;;;;;21.24;45.74;93319.75;4990506;28;20199;-91
2023/06/18 06:09:01;;;;;;;7.07;5.90;;;;;;;21.25;45.78;93321.22;4975335;28;20117;-90
2023/06/18 06:11:27;;;;;;;8.23;6.00;;;;;;;21.24;45.94;93315.00;5010265;28;20173;-91
2023/06/18 06:13:52;;;;;;;9.55;5.88;;;;;;;21.25;45.66;93323.97;4980086;28;20049;-90
2023/06/18 06:16:18;;;;;;;7.00;5.90;;;;;;;21.27;45.80;93327.69;4982494;28;20064;-91
2023/06/18 06:18:43;;;;;;;7.15;6.00;;;;;;;21.28;45.79;93328.41;4990028;28;20031;-90
2023/06/18 06:21:09;;;;;;;7.25;6.22;;;;;;;21.30;45.83;93331.38;4982087;28;20428;-90
2023/06/18 06:23:34;;;;;;;7.53;6.72;;;;;;;21.30;45.79;93331.38;4987187;28;20120;-90
2023/06/18 06:26:00;;;;;;;7.80;5.85;;;;;;;21.30;45.77;93332.13;5007240;28;20108;-89
2023/06/18 06:28:25;;;;;;;7.30;6.07;;;;;;;21.33;45.90;93338.56;5005525;28;20038;-88
2023/06/18 06:30:51;;;;;;;6.82;5.80;;;;;;;21.33;45.71;93333.06;4973636;28;20109;-90
2023/06/18 06:33:16;;;;;;;8.13;6.18;;;;;;;21.33;46.15;93336.56;4979588;28;20039;-91
2023/06/18 06:35:41;;;;;;;9.77;6.20;;;;;;;21.34;45.80;93340.78;4978092;28;20046;-90
2023/06/18 06:38:07;;;;;;;6.68;5.72;;;;;;;21.36;45.79;93343.00;5024430;28;20042;-92
2023/06/18 06:40:32;;;;;;;9.32;5.95;;;;;;;21.37;45.73;93350.00;4992259;28;20064;-91
2023/06/18 06:42:58;;;;;;;7.88;6.28;;;;;;;21.39;45.48;93339.19;4990948;28;20076;-90
2023/06/18 06:45:24;;;;;;;8.75;6.43;;;;;;;21.40;45.82;93354.44;5008074;28;20048;-89
2023/06/18 06:47:49;;;;;;;6.38;5.38;;;;;;;21.40;45.69;93341.41;5011077;28;20044;-90
2023/06/18 06:50:15;;;;;;;7.20;5.75;;;;;;;21.41;45.75;93333.91;4975297;28;20417;-90
2023/06/18 06:52:40;;;;;;;8.40;6.13;;;;;;;21.40;45.63;93330.41;4986177;28;20065;-91
2023/06/18 06:55:06;;;;;;;8.27;6.50;;;;;;;21.41;45.63;93342.91;5001692;28;20037;-90
2023/06/18 06:57:32;;;;;;;7.60;6.25;;;;;;;21.42;45.75;93332.63;5015667;28;20080;-90
2023/06/18 06:59:57;;;;;;;6.85;5.97;;;;;;;21.42;45.60;93336.13;4998993;28;20037;-90
2023/06/18 07:02:24;;;;;;;7.38;6.10;;;;;;;21.43;45.56;93336.88;4993039;28;20076;-90
2023/06/18 07:04:49;;;;;;;7.32;5.55;;;;;;;21.43;45.55;93336.88;4992338;28;20065;-91
2023/06/18 07:07:15;;;;;;;7.03;5.70;;;;;;;21.42;45.33;93338.88;4997639;28;20057;-90
2023/06/18 07:09:40;;;;;;;6.65;5.88;;;;;;;21.44;45.31;93338.31;5023118;28;20466;-90
2023/06/18 07:12:06;;;;;;;8.70;6.75;;;;;;;21.45;45.39;93334.31;5040316;28;20073;-91
2023/06/18 07:14:32;;;;;;;6.85;6.05;;;;;;;21.44;45.32;93344.56;4982091;28;20050;-91
2023/06/18 07:16:58;;;;;;;6.90;5.88;;;;;;;21.45;45.33;93337.06;4986820;28;20061;-90
2023/06/18 07:19:23;;;;;;;6.85;5.50;;;;;;;21.44;44.95;93333.56;4992628;28;20041;-91
2023/06/18 07:21:50;;;;;;;10.73;6.20;;;;;;;21.43;45.33;93339.63;4996338;28;20068;-92
2023/06/18 07:24:15;;;;;;;6.40;5.65;;;;;;;21.44;45.09;93335.56;4992062;28;20030;-90
2023/06/18 07:26:41;;;;;;;7.93;6.15;;;;;;;21.43;45.30;93343.13;4986911;28;20116;-90
2023/06/18 07:29:06;;;;;;;6.95;6.03;;;;;;;21.43;45.33;93340.38;5009853;28;20413;-90
2023/06/18 07:31:32;;;;;;;7.55;5.85;;;;;;;21.45;45.30;93339.81;4982764;28;20034;-90
2023/06/18 07:33:58;;;;;;;6.97;6.28;;;;;;;21.43;45.65;93345.88;4993115;28;20045;-90
2023/06/18 07:36:23;;;;;;;7.40;5.80;;;;;;;21.43;45.47;93348.63;4989345;28;20071;-91
2023/06/18 07:38:49;;;;;;;6.53;5.93;;;;;;;21.44;45.73;93341.81;4990187;28;20400;-91
2023/06/18 07:41:14;;;;;;;7.32;6.20;;;;;;;21.41;45.60;93342.91;5023687;28;20050;-91
2023/06/18 07:43:40;;;;;;;6.80;5.65;;;;;;;21.42;45.72;93346.41;4990959;28;20034;-91
2023/06/18 07:46:06;;;;;;;7.20;6.10;;;;;;;21.42;45.93;93352.63;4983304;28;20100;-89
2023/06/18 07:48:32;;;;;;;10.70;6.38;;;;;;;21.39;45.98;93350.94;5001640;28;20133;-91
2023/06/18 07:50:57;;;;;;;6.95;6.22;;;;;;;21.41;46.17;93340.16;4997978;28;20037;-91
2023/06/18 07:53:22;;;;;;;7.00;6.30;;;;;;;21.41;46.10;93353.91;5001867;28;20042;-91
2023/06/18 07:55:48;;;;;;;6.38;5.72;;;;;;;21.42;45.75;93351.91;4978480;28;20041;-92
2023/06/18 07:58:13;;;;;;;8.45;5.93;;;;;;;21.43;45.96;93345.88;4976478;28;20116;-90
2023/06/18 08:00:39;;;;;;;10.10;6.18;;;;;;;21.43;45.57;93347.88;4993913;28;20424;-92
2023/06/18 08:03:04;;;;;;;6.72;6.03;;;;;;;21.41;45.96;93344.91;4993669;28;20053;-89
2023/06/18 08:05:30;;;;;;;6.82;5.70;;;;;;;21.43;45.84;93347.88;5013464;28;20397;-91
2023/06/18 08:07:56;;;;;;;9.20;6.55;;;;;;;21.42;45.76;93352.63;4993993;28;20474;-90
2023/06/18 08:10:21;;;;;;;7.68;6.30;;;;;;;21.44;45.46;93347.31;5011770;28;20049;-90
2023/06/18 08:12:47;;;;;;;8.93;6.00;;;;;;;21.43;45.45;93354.13;5015197;28;20452;-91
2023/06/18 08:15:12;;;;;;;6.60;5.90;;;;;;;21.43;45.50;93351.38;4976646;28;20546;-89
2023/06/18 08:17:37;;;;;;;7.85;5.85;;;;;;;21.44;45.56;93350.06;4973362;28;20053;-91
2023/06/18 08:20:04;;;;;;;7.03;6.32;;;;;;;21.45;45.58;93340.53;4971197;28;20053;-88
2023/06/18 08:22:29;;;;;;;10.02;6.88;;;;;;;21.45;45.89;93348.06;4989668;28;20038;-89
2023/06/18 08:24:55;;;;;;;6.93;6.22;;;;;;;21.45;46.12;93354.28;4970963;28;20053;-88
2023/06/18 08:27:20;;;;;;;8.18;6.60;;;;;;;21.46;45.62;93346.78;4987866;28;20046;-89
2023/06/18 08:29:46;;;;;;;6.80;6.07;;;;;;;21.44;45.57;93344.56;4973635;28;20042;-89
2023/06/18 08:32:13;;;;;;;7.15;6.45;;;;;;;21.44;45.23;93350.06;4991505;28;20464;-87
2023/06/18 08:34:42;;;;;;;7.40;6.50;;;;;;;21.45;45.13;93345.31;4991285;28;20045;-89
2023/06/18 08:37:08;;;;;;;6.40;5.80;;;;;;;21.44;45.07;93341.81;4973053;28;20050;-88
2023/06/18 08:39:33;;;;;;;7.90;6.70;;;;;;;21.46;45.43;93344.03;4991221;28;20048;-88
2023/06/18 08:42:01;;;;;;;7.78;6.53;;;;;;;21.44;45.24;93347.31;4973975;28;20050;-89
2023/06/18 08:44:27;;;;;;;8.27;5.60;;;;;;;21.47;44.88;93345.50;4974802;28;20053;-88
2023/06/18 08:46:56;;;;;;;9.35;6.68;;;;;;;21.49;44.98;93349.22;4982815;28;20490;-88
2023/06/18 08:49:22;;;;;;;8.23;6.68;;;;;;;21.48;44.77;93344.97;5022261;28;20065;-87
2023/06/18 08:51:47;;;;;;;7.65;5.97;;;;;;;21.46;44.76;93349.53;4980258;28;20517;-89
2023/06/18 08:54:18;;;;;;;6.78;5.97;;;;;;;21.48;44.42;93341.50;4983221;28;20046;-88
2023/06/18 08:56:45;;;;;;;7.88;6.90;;;;;;;21.46;44.67;93344.03;4981606;28;20072;-88
2023/06/18 08:59:11;;;;;;;8.48;6.75;;;;;;;21.49;44.72;93348.47;4976726;28;20050;-88
2023/06/18 09:01:37;;;;;;;6.72;5.90;;;;;;;21.50;44.35;93345.19;4989014;28;20049;-87
2023/06/18 09:04:02;;;;;;;7.72;6.93;;;;;;;21.46;44.61;93344.78;4956874;28;20562;-88
2023/06/18 09:06:28;;;;;;;7.63;6.78;;;;;;;21.47;44.58;93340.00;5007067;28;20432;-88
2023/06/18 09:08:57;;;;;;;8.00;6.80;;;;;;;21.48;44.98;93344.25;4975879;28;20050;-89
2023/06/18 09:11:23;;;;;;;8.15;7.18;;;;;;;21.48;44.86;93341.50;4972315;28;20043;-89
2023/06/18 09:13:48;;;;;;;7.57;6.72;;;;;;;21.48;44.90;93341.50;4975308;28;20560;-87
2023/06/18 09:16:14;;;;;;;9.07;7.85;;;;;;;21.46;44.88;93336.53;4974822;28;20100;-87
2023/06/18 09:18:40;;;;;;;9.20;7.57;;;;;;;21.48;45.18;93344.25;5003014;28;20037;-88
2023/06/18 09:21:05;;;;;;;8.10;7.28;;;;;;;21.50;44.93;93352.69;5026238;28;20099;-89
2023/06/18 09:23:31;;;;;;;8.30;7.50;;;;;;;21.48;45.03;93339.47;4974986;28;20124;-88
2023/06/18 09:25:56;;;;;;;9.27;7.50;;;;;;;21.48;44.91;93349.75;4963434;28;20110;-89
2023/06/18 09:28:23;;;;;;;10.32;8.15;;;;;;;21.48;44.78;93342.22;4971471;28;20045;-89
2023/06/18 09:30:50;;;;;;;8.20;6.72;;;;;;;21.49;44.79;93346.47;4973079;28;20038;-89
2023/06/18 09:33:37;;;;;;;7.63;6.82;;;;;;;21.50;44.72;93347.19;4998683;28;20037;-89
2023/06/18 09:36:04;;;;;;;7.88;7.03;;;;;;;21.48;45.06;93353.22;5017123;28;20041;-88
2023/06/18 09:38:34;;;;;;;9.75;7.28;;;;;;;21.49;44.82;93346.47;4978422;28;20042;-89
2023/06/18 09:40:59;;;;;;;7.60;6.80;;;;;;;21.50;44.95;93344.44;5021697;28;20041;-89
2023/06/18 09:43:34;;;;;;;9.57;8.45;;;;;;;21.51;44.72;93351.44;4991264;28;20485;-90
2023/06/18 09:46:05;;;;;;;7.75;6.90;;;;;;;21.49;44.95;93340.22;4975819;28;20515;-89
2023/06/18 09:48:31;;;;;;;8.80;7.90;;;;;;;21.49;44.78;93340.22;5007196;28;20349;-88
2023/06/18 09:51:00;;;;;;;8.70;7.53;;;;;;;21.49;44.60;93338.22;5017754;28;20041;-89
2023/06/18 09:53:25;;;;;;;9.05;7.38;;;;;;;21.51;44.69;93332.19;5011771;28;20046;-90
2023/06/18 09:55:51;;;;;;;9.40;8.15;;;;;;;21.51;44.53;93343.19;5007389;28;20397;-89
2023/06/18 09:58:16;;;;;;;8.23;6.57;;;;;;;21.51;44.44;93337.69;5002291;28;20401;-90
2023/06/18 10:00:41;;;;;;;8.90;8.00;;;;;;;21.51;45.13;93334.94;4990538;28;20413;-91
2023/06/18 10:03:07;;;;;;;8.93;7.32;;;;;;;21.50;44.60;93336.94;4984431;28;20038;-88
2023/06/18 10:05:36;;;;;;;7.95;6.57;;;;;;;21.51;44.79;93340.44;4972299;28;20038;-90
2023/06/18 10:08:03;;;;;;;8.80;7.40;;;;;;;21.53;44.69;93335.88;4987027;28;20576;-90
2023/06/18 10:10:29;;;;;;;7.80;6.75;;;;;;;21.51;44.76;93332.91;4973696;28;20497;-91
2023/06/18 10:12:55;;;;;;;8.63;7.30;;;;;;;21.52;44.98;93336.41;5004356;28;20041;-90
2023/06/18 10:15:20;;;;;;;7.80;7.00;;;;;;;21.54;44.82;93342.13;4992602;28;20527;-88
2023/06/18 10:17:48;;;;;;;8.70;7.32;;;;;;;21.51;44.60;93346.66;4992736;28;20033;-90
2023/06/18 10:20:14;;;;;;;8.40;7.40;;;;;;;21.52;44.67;93337.16;4992313;28;20128;-89
2023/06/18 10:22:46;;;;;;;9.05;7.55;;;;;;;21.50;44.72;93336.94;4987571;28;20045;-91
2023/06/18 10:25:12;;;;;;;8.38;7.32;;;;;;;21.51;44.75;93329.44;4982842;28;20137;-88
2023/06/18 10:27:37;;;;;;;8.57;7.68;;;;;;;21.51;44.88;93340.44;4997840;28;20589;-89
2023/06/18 10:30:03;;;;;;;8.05;7.15;;;;;;;21.49;44.33;93343.72;4979697;28;20054;-89
2023/06/18 10:32:30;;;;;;;9.23;7.93;;;;;;;21.51;44.86;93346.66;5013767;28;20485;-90
2023/06/18 10:34:57;;;;;;;9.35;7.85;;;;;;;21.52;44.92;93347.41;4983136;28;20144;-89
2023/06/18 10:37:27;;;;;;;8.85;7.78;;;;;;;21.51;44.95;93349.41;4992785;28;20111;-90
2023/06/18 10:39:53;;;;;;;8.68;7.70;;;;;;;21.52;44.95;93344.66;4995068;28;20076;-90
2023/06/18 10:42:19;;;;;;;10.30;7.95;;;;;;;21.51;44.98;93345.94;4978284;28;20042;-90
2023/06/18 10:44:48;;;;;;;12.73;8.57;;;;;;;21.50;45.05;93345.19;4995496;28;20135;-90
2023/06/18 10:47:23;;;;;;;9.55;7.85;;;;;;;21.51;45.13;93345.94;4996570;28;20034;-91
2023/06/18 10:50:04;;;;;;;9.48;8.15;;;;;;;21.53;45.32;93343.38;4986238;28;20333;-90
2023/06/18 10:52:31;;;;;;;9.18;8.23;;;;;;;21.52;45.32;93344.66;5008984;28;20041;-90
2023/06/18 10:55:12;;;;;;;9.80;8.05;;;;;;;21.51;45.33;93343.19;4990128;28;20119;-90
2023/06/18 10:57:41;;;;;;;10.65;8.38;;;;;;;21.51;45.39;93330.16;5007721;28;20496;-89
2023/06/18 11:00:21;;;;;;;9.68;8.68;;;;;;;21.50;45.22;93342.44;4977907;28;20057;-90
2023/06/18 11:02:50;;;;;;;9.93;7.55;;;;;;;21.52;45.00;93342.66;4979076;28;20125;-89
2023/06/18 11:05:42;;;;;;;8.23;7.32;;;;;;;21.51;45.23;93337.69;4989928;28;20037;-88
2023/06/18 11:08:08;;;;;;;11.38;8.50;;;;;;;21.51;45.15;93332.19;5005102;28;20053;-88
2023/06/18 11:10:39;;;;;;;8.65;7.75;;;;;;;21.54;45.15;93333.88;4964648;28;20057;-90
2023/06/18 11:13:07;;;;;;;;;;;;;;;21.53;45.07;93341.38;4992833;28;20065;-89
2023/06/18 11:15:36;;;;;;;8.93;7.82;;;;;;;21.51;45.27;93338.41;5009315;28;20447;-90
2023/06/18 11:18:02;;;;;;;9.77;8.32;;;;;;;21.50;45.14;93331.44;5001955;28;20397;-89
2023/06/18 11:20:35;;;;;;;11.18;9.23;;;;;;;21.50;45.53;93334.19;4999819;28;20040;-89
2023/06/18 11:23:00;;;;;;;9.68;7.78;;;;;;;21.52;45.09;93331.66;4986620;28;20037;-89
2023/06/18 11:25:26;;;;;;;8.52;7.68;;;;;;;21.52;45.34;93328.16;4993008;28;20500;-90